sensor_id;sensor_type;location;lat;lon;timestamp;temperature;humidity
57833;DHT22;43667;53.036;6.740;2023-09-19T05:07:36;13.20;99.90
57833;DHT22;43667;53.036;6.740;2023-09-19T05:10:03;12.90;99.90
57833;DHT22;43667;53.036;6.740;2023-09-19T05:12:35;13.30;99.90
57833;DHT22;43667;53.036;6.740;2023-09-19T07:39:56;15.00;99.90
57833;DHT22;43667;53.036;6.740;2023-09-19T07:42:22;14.80;99.90
57833;DHT22;43667;53.036;6.740;2023-09-19T07:44:48;14.90;99.90
57833;DHT22;43667;53.036;6.740;2023-09-19T07:47:16;14.90;99.90
57833;DHT22;43667;53.036;6.740;2023-09-19T07:49:42;15.00;99.90
57833;DHT22;43667;53.036;6.740;2023-09-19T07:52:08;14.90;99.90
57833;DHT22;43667;53.036;6.740;2023-09-19T07:54:35;14.80;99.90
57833;DHT22;43667;53.036;6.740;2023-09-19T07:57:01;15.00;99.90
57833;DHT22;43667;53.036;6.740;2023-09-19T07:59:27;15.40;99.90
57833;DHT22;43667;53.036;6.740;2023-09-19T08:01:53;15.00;99.90
57833;DHT22;43667;53.036;6.740;2023-09-19T12:10:05;19.20;99.90
57833;DHT22;43667;53.036;6.740;2023-09-19T12:12:31;19.60;99.90
57833;DHT22;43667;53.036;6.740;2023-09-19T12:14:59;19.20;99.90
57833;DHT22;43667;53.036;6.740;2023-09-19T12:17:37;19.10;99.90
57833;DHT22;43667;53.036;6.740;2023-09-19T12:20:05;19.00;99.90
57833;DHT22;43667;53.036;6.740;2023-09-19T12:22:44;19.00;99.90
57833;DHT22;43667;53.036;6.740;2023-09-19T12:25:11;19.20;99.90
57833;DHT22;43667;53.036;6.740;2023-09-19T12:27:48;18.90;99.90
57833;DHT22;43667;53.036;6.740;2023-09-19T12:30:16;19.10;99.90
57833;DHT22;43667;53.036;6.740;2023-09-19T12:32:43;18.80;99.90
57833;DHT22;43667;53.036;6.740;2023-09-19T12:35:10;18.70;99.90
57833;DHT22;43667;53.036;6.740;2023-09-19T12:37:45;18.70;99.90
57833;DHT22;43667;53.036;6.740;2023-09-19T12:40:19;18.60;99.90
57833;DHT22;43667;53.036;6.740;2023-09-19T12:42:52;18.60;99.90
57833;DHT22;43667;53.036;6.740;2023-09-19T12:45:19;18.40;99.90
57833;DHT22;43667;53.036;6.740;2023-09-19T12:48:22;18.30;99.90
57833;DHT22;43667;53.036;6.740;2023-09-19T12:51:10;18.40;99.90
57833;DHT22;43667;53.036;6.740;2023-09-19T12:53:41;18.80;99.90
57833;DHT22;43667;53.036;6.740;2023-09-19T12:56:21;18.60;99.90
57833;DHT22;43667;53.036;6.740;2023-09-19T12:58:57;18.50;99.90
57833;DHT22;43667;53.036;6.740;2023-09-19T13:01:24;18.70;99.90
57833;DHT22;43667;53.036;6.740;2023-09-19T13:06:51;18.50;99.90
57833;DHT22;43667;53.036;6.740;2023-09-19T13:09:19;18.30;99.90
57833;DHT22;43667;53.036;6.740;2023-09-19T13:11:46;18.40;99.90
57833;DHT22;43667;53.036;6.740;2023-09-19T13:14:24;18.30;99.90
57833;DHT22;43667;53.036;6.740;2023-09-19T13:17:07;18.40;99.90
57833;DHT22;43667;53.036;6.740;2023-09-19T13:22:36;18.20;99.90
57833;DHT22;43667;53.036;6.740;2023-09-19T13:25:17;18.30;99.90
57833;DHT22;43667;53.036;6.740;2023-09-19T13:27:47;18.40;99.90
57833;DHT22;43667;53.036;6.740;2023-09-19T13:30:27;18.20;99.90
57833;DHT22;43667;53.036;6.740;2023-09-19T13:33:11;18.40;99.90
57833;DHT22;43667;53.036;6.740;2023-09-19T13:35:38;18.20;99.90
57833;DHT22;43667;53.036;6.740;2023-09-19T13:38:05;18.10;99.90
57833;DHT22;43667;53.036;6.740;2023-09-19T13:40:32;18.10;99.90
57833;DHT22;43667;53.036;6.740;2023-09-19T13:43:01;18.10;99.90
57833;DHT22;43667;53.036;6.740;2023-09-19T13:45:26;18.10;99.90
57833;DHT22;43667;53.036;6.740;2023-09-19T13:47:52;18.00;99.90
57833;DHT22;43667;53.036;6.740;2023-09-19T13:50:17;18.10;99.90
57833;DHT22;43667;53.036;6.740;2023-09-19T13:52:49;18.30;99.90
57833;DHT22;43667;53.036;6.740;2023-09-19T13:55:16;18.10;99.90
57833;DHT22;43667;53.036;6.740;2023-09-19T13:57:48;18.20;99.90
57833;DHT22;43667;53.036;6.740;2023-09-19T14:00:20;18.00;99.90
57833;DHT22;43667;53.036;6.740;2023-09-19T14:02:46;18.10;99.90
57833;DHT22;43667;53.036;6.740;2023-09-19T14:05:13;18.20;99.90
57833;DHT22;43667;53.036;6.740;2023-09-19T14:07:41;18.10;99.90
57833;DHT22;43667;53.036;6.740;2023-09-19T14:10:07;18.00;99.90
57833;DHT22;43667;53.036;6.740;2023-09-19T14:12:39;18.20;99.90
57833;DHT22;43667;53.036;6.740;2023-09-19T14:15:08;18.30;99.90
57833;DHT22;43667;53.036;6.740;2023-09-19T14:17:34;18.50;99.90
57833;DHT22;43667;53.036;6.740;2023-09-19T14:20:00;18.50;99.90
57833;DHT22;43667;53.036;6.740;2023-09-19T14:22:25;18.40;99.90
57833;DHT22;43667;53.036;6.740;2023-09-19T14:24:51;18.40;99.90
57833;DHT22;43667;53.036;6.740;2023-09-19T14:27:18;18.30;99.90
57833;DHT22;43667;53.036;6.740;2023-09-19T14:29:44;18.50;99.90
57833;DHT22;43667;53.036;6.740;2023-09-19T14:32:09;18.60;99.90
57833;DHT22;43667;53.036;6.740;2023-09-19T14:34:35;18.50;99.90
57833;DHT22;43667;53.036;6.740;2023-09-19T14:37:07;18.40;99.90
57833;DHT22;43667;53.036;6.740;2023-09-19T14:39:33;18.40;99.90
57833;DHT22;43667;53.036;6.740;2023-09-19T14:41:58;18.70;99.90
57833;DHT22;43667;53.036;6.740;2023-09-19T14:44:24;18.40;99.90
57833;DHT22;43667;53.036;6.740;2023-09-19T14:46:50;18.70;99.90
57833;DHT22;43667;53.036;6.740;2023-09-19T14:49:15;18.40;99.90
57833;DHT22;43667;53.036;6.740;2023-09-19T14:51:42;18.30;99.90
57833;DHT22;43667;53.036;6.740;2023-09-19T14:54:12;18.40;99.90
57833;DHT22;43667;53.036;6.740;2023-09-19T14:56:38;18.40;99.90
57833;DHT22;43667;53.036;6.740;2023-09-19T14:59:04;18.30;99.90
57833;DHT22;43667;53.036;6.740;2023-09-19T15:01:30;18.40;99.90
57833;DHT22;43667;53.036;6.740;2023-09-19T15:03:55;18.50;99.90
57833;DHT22;43667;53.036;6.740;2023-09-19T15:06:21;18.40;99.90
57833;DHT22;43667;53.036;6.740;2023-09-19T15:08:47;18.40;99.90
57833;DHT22;43667;53.036;6.740;2023-09-19T15:11:14;18.30;99.90
57833;DHT22;43667;53.036;6.740;2023-09-19T15:13:42;18.30;99.90
57833;DHT22;43667;53.036;6.740;2023-09-19T15:16:09;18.40;99.90
57833;DHT22;43667;53.036;6.740;2023-09-19T15:18:36;18.30;99.90
57833;DHT22;43667;53.036;6.740;2023-09-19T15:21:05;18.40;99.90
57833;DHT22;43667;53.036;6.740;2023-09-19T15:23:35;18.20;99.90
57833;DHT22;43667;53.036;6.740;2023-09-19T15:26:15;18.30;99.90
57833;DHT22;43667;53.036;6.740;2023-09-19T15:28:46;18.20;99.90
57833;DHT22;43667;53.036;6.740;2023-09-19T15:31:12;18.10;99.90
57833;DHT22;43667;53.036;6.740;2023-09-19T15:33:38;18.10;99.90
57833;DHT22;43667;53.036;6.740;2023-09-19T15:36:09;17.70;99.90
57833;DHT22;43667;53.036;6.740;2023-09-19T15:38:55;17.70;99.90
57833;DHT22;43667;53.036;6.740;2023-09-19T15:41:22;17.70;99.90
57833;DHT22;43667;53.036;6.740;2023-09-19T15:43:50;17.50;99.90
57833;DHT22;43667;53.036;6.740;2023-09-19T15:46:15;17.70;99.90
57833;DHT22;43667;53.036;6.740;2023-09-19T15:48:42;17.60;99.90
57833;DHT22;43667;53.036;6.740;2023-09-19T15:51:08;17.60;99.90
57833;DHT22;43667;53.036;6.740;2023-09-19T15:53:47;17.40;99.90
57833;DHT22;43667;53.036;6.740;2023-09-19T15:56:18;17.60;99.90
57833;DHT22;43667;53.036;6.740;2023-09-19T15:58:44;17.60;99.90
57833;DHT22;43667;53.036;6.740;2023-09-19T16:01:11;17.60;99.90
57833;DHT22;43667;53.036;6.740;2023-09-19T16:03:38;17.60;99.90
57833;DHT22;43667;53.036;6.740;2023-09-19T16:06:11;17.70;99.90
57833;DHT22;43667;53.036;6.740;2023-09-19T16:08:45;17.70;99.90
57833;DHT22;43667;53.036;6.740;2023-09-19T16:11:11;17.60;99.90
57833;DHT22;43667;53.036;6.740;2023-09-19T16:13:37;17.80;99.90
57833;DHT22;43667;53.036;6.740;2023-09-19T16:16:03;17.60;99.90
57833;DHT22;43667;53.036;6.740;2023-09-19T16:18:29;17.70;99.90
57833;DHT22;43667;53.036;6.740;2023-09-19T16:21:06;17.60;99.90
57833;DHT22;43667;53.036;6.740;2023-09-19T16:23:36;17.60;99.90
57833;DHT22;43667;53.036;6.740;2023-09-19T16:26:09;17.60;99.90
57833;DHT22;43667;53.036;6.740;2023-09-19T16:28:38;17.60;99.90
57833;DHT22;43667;53.036;6.740;2023-09-19T16:31:04;17.60;99.90
57833;DHT22;43667;53.036;6.740;2023-09-19T16:33:40;17.50;99.90
57833;DHT22;43667;53.036;6.740;2023-09-19T16:36:10;17.30;99.90
57833;DHT22;43667;53.036;6.740;2023-09-19T16:38:36;17.50;99.90
57833;DHT22;43667;53.036;6.740;2023-09-19T16:41:03;17.10;99.90
57833;DHT22;43667;53.036;6.740;2023-09-19T16:43:35;17.10;99.90
57833;DHT22;43667;53.036;6.740;2023-09-19T16:46:06;17.10;99.90
57833;DHT22;43667;53.036;6.740;2023-09-19T16:48:35;16.90;99.90
57833;DHT22;43667;53.036;6.740;2023-09-19T16:51:03;16.80;99.90
57833;DHT22;43667;53.036;6.740;2023-09-19T16:53:30;16.70;99.90
57833;DHT22;43667;53.036;6.740;2023-09-19T16:56:04;16.60;99.90
57833;DHT22;43667;53.036;6.740;2023-09-19T16:58:32;16.50;99.90
57833;DHT22;43667;53.036;6.740;2023-09-19T17:00:59;16.70;99.90
57833;DHT22;43667;53.036;6.740;2023-09-19T17:03:25;16.40;99.90
57833;DHT22;43667;53.036;6.740;2023-09-19T17:05:51;16.30;99.90
57833;DHT22;43667;53.036;6.740;2023-09-19T17:08:18;16.50;99.90
57833;DHT22;43667;53.036;6.740;2023-09-19T17:10:43;16.80;99.90
57833;DHT22;43667;53.036;6.740;2023-09-19T17:13:10;16.60;99.90
57833;DHT22;43667;53.036;6.740;2023-09-19T17:15:39;16.70;99.90
57833;DHT22;43667;53.036;6.740;2023-09-19T17:18:05;16.50;99.90
57833;DHT22;43667;53.036;6.740;2023-09-19T17:20:31;16.40;99.90
57833;DHT22;43667;53.036;6.740;2023-09-19T23:07:58;16.70;99.90
57833;DHT22;43667;53.036;6.740;2023-09-19T23:10:24;16.40;99.90
57833;DHT22;43667;53.036;6.740;2023-09-19T23:12:55;16.50;99.90
57833;DHT22;43667;53.036;6.740;2023-09-19T23:15:22;16.40;99.90
